Time;durP1;ratioP1;P1;durP2;ratioP2;P2;SDS_P1;SDS_P2;PMS_P1;PMS_P2;Temp;Humidity;BMP_temperature;BMP_pressure;BME280_temperature;BME280_humidity;BME280_pressure;Samples;Min_cycle;Max_cycle;Signal;HPM_P1;HPM_P2
2022/03/01 00:00:11;;;;;;;17.25;9.75;;;;;;;-3.29;39.26855;96339.06;;;;
2022/03/01 00:01:13;;;;;;;17.25;9.75;;;;;;;-3.29;39.26855;96339.06;;;;
2022/03/01 00:02:13;;;;;;;17.25;9.75;;;;;;;-3.29;39.26855;96339.06;;;;
2022/03/01 00:03:14;;;;;;;17.25;9.75;;;;;;;-3.29;39.26855;96339.06;;;;
2022/03/01 00:04:14;;;;;;;17.25;9.75;;;;;;;-3.29;39.26855;96339.06;;;;
2022/03/01 00:05:15;;;;;;;17.25;9.75;;;;;;;-3.29;39.26855;96339.06;;;;
2022/03/01 00:06:15;;;;;;;17.25;9.75;;;;;;;-3.29;39.26855;96339.06;;;;
2022/03/01 00:07:16;;;;;;;17.25;9.75;;;;;;;-3.29;39.26855;96339.06;;;;
2022/03/01 00:08:16;;;;;;;17.25;9.75;;;;;;;-3.29;39.26855;96339.06;;;;
2022/03/01 00:09:17;;;;;;;17.25;9.75;;;;;;;-3.29;39.26855;96339.06;;;;
2022/03/01 00:10:17;;;;;;;17.25;9.75;;;;;;;-3.29;39.26855;96339.06;;;;
2022/03/01 00:11:18;;;;;;;15.35;10.15;;;;;;;-3.39;39.88672;96340.36;;;;
2022/03/01 00:12:18;;;;;;;15.35;10.15;;;;;;;-3.39;39.88672;96340.36;;;;
2022/03/01 00:13:19;;;;;;;15.35;10.15;;;;;;;-3.39;39.88672;96340.36;;;;
2022/03/01 00:14:19;;;;;;;15.35;10.15;;;;;;;-3.39;39.88672;96340.36;;;;
2022/03/01 00:15:20;;;;;;;15.35;10.15;;;;;;;-3.39;39.88672;96340.36;;;;
2022/03/01 00:16:20;;;;;;;15.35;10.15;;;;;;;-3.39;39.88672;96340.36;;;;
2022/03/01 00:17:21;;;;;;;15.35;10.15;;;;;;;-3.39;39.88672;96340.36;;;;
2022/03/01 00:18:21;;;;;;;15.35;10.15;;;;;;;-3.39;39.88672;96340.36;;;;
2022/03/01 00:19:22;;;;;;;15.35;10.15;;;;;;;-3.39;39.88672;96340.36;;;;
2022/03/01 00:20:22;;;;;;;15.35;10.15;;;;;;;-3.39;39.88672;96340.36;;;;
2022/03/01 00:21:23;;;;;;;16.45;10.1;;;;;;;-3.52;40.36523;96330.87;;;;
2022/03/01 00:22:24;;;;;;;16.45;10.1;;;;;;;-3.52;40.36523;96330.87;;;;
2022/03/01 00:23:25;;;;;;;16.45;10.1;;;;;;;-3.52;40.36523;96330.87;;;;
2022/03/01 00:24:25;;;;;;;16.45;10.1;;;;;;;-3.52;40.36523;96330.87;;;;
2022/03/01 00:25:26;;;;;;;16.45;10.1;;;;;;;-3.52;40.36523;96330.87;;;;
2022/03/01 00:26:26;;;;;;;16.45;10.1;;;;;;;-3.52;40.36523;96330.87;;;;
2022/03/01 00:27:26;;;;;;;16.45;10.1;;;;;;;-3.52;40.36523;96330.87;;;;
2022/03/01 00:28:27;;;;;;;16.45;10.1;;;;;;;-3.52;40.36523;96330.87;;;;
2022/03/01 00:29:28;;;;;;;16.45;10.1;;;;;;;-3.52;40.36523;96330.87;;;;
2022/03/01 00:30:28;;;;;;;16.45;10.1;;;;;;;-3.52;40.36523;96330.87;;;;
2022/03/01 00:31:29;;;;;;;16.45;10.1;;;;;;;-3.52;40.36523;96330.87;;;;
2022/03/01 00:32:29;;;;;;;15.05;10.2;;;;;;;-3.77;40.91699;96322.37;;;;
2022/03/01 00:33:30;;;;;;;15.05;10.2;;;;;;;-3.77;40.91699;96322.37;;;;
2022/03/01 00:34:30;;;;;;;15.05;10.2;;;;;;;-3.77;40.91699;96322.37;;;;
2022/03/01 00:35:31;;;;;;;15.05;10.2;;;;;;;-3.77;40.91699;96322.37;;;;
2022/03/01 00:36:32;;;;;;;15.05;10.2;;;;;;;-3.77;40.91699;96322.37;;;;
2022/03/01 00:37:33;;;;;;;15.05;10.2;;;;;;;-3.77;40.91699;96322.37;;;;
2022/03/01 00:38:33;;;;;;;15.05;10.2;;;;;;;-3.77;40.91699;96322.37;;;;
2022/03/01 00:39:34;;;;;;;15.05;10.2;;;;;;;-3.77;40.91699;96322.37;;;;
2022/03/01 00:40:34;;;;;;;15.05;10.2;;;;;;;-3.77;40.91699;96322.37;;;;
2022/03/01 00:41:35;;;;;;;15.05;10.2;;;;;;;-3.77;40.91699;96322.37;;;;
2022/03/01 00:42:35;;;;;;;15.05;10.2;;;;;;;-3.77;40.91699;96322.37;;;;
2022/03/01 00:43:36;;;;;;;15.05;10.2;;;;;;;-3.77;40.91699;96322.37;;;;
2022/03/01 00:44:37;;;;;;;15.05;10.2;;;;;;;-3.77;40.91699;96322.37;;;;
2022/03/01 00:45:37;;;;;;;15.05;10.2;;;;;;;-3.77;40.91699;96322.37;;;;
2022/03/01 00:46:38;;;;;;;15.05;10.2;;;;;;;-3.77;40.91699;96322.37;;;;
2022/03/01 00:47:38;;;;;;;15.05;10.2;;;;;;;-3.77;40.91699;96322.37;;;;
2022/03/01 00:48:39;;;;;;;15.05;10.2;;;;;;;-3.77;40.91699;96322.37;;;;
2022/03/01 00:49:39;;;;;;;15.05;10.2;;;;;;;-3.77;40.91699;96322.37;;;;
2022/03/01 00:50:40;;;;;;;15.05;10.2;;;;;;;-3.77;40.91699;96322.37;;;;
2022/03/01 00:51:40;;;;;;;15.05;10.2;;;;;;;-3.77;40.91699;96322.37;;;;
2022/03/01 00:52:41;;;;;;;15.05;10.2;;;;;;;-3.77;40.91699;96322.37;;;;
2022/03/01 00:53:41;;;;;;;15.05;10.3;;;;;;;-4.19;41.96094;96316.16;;;;
2022/03/01 00:54:42;;;;;;;15.05;10.3;;;;;;;-4.19;41.96094;96316.16;;;;
2022/03/01 00:55:42;;;;;;;15.05;10.3;;;;;;;-4.19;41.96094;96316.16;;;;
2022/03/01 00:56:43;;;;;;;15.05;10.3;;;;;;;-4.19;41.96094;96316.16;;;;
2022/03/01 00:57:43;;;;;;;15.05;10.3;;;;;;;-4.19;41.96094;96316.16;;;;
2022/03/01 00:58:44;;;;;;;15.05;10.3;;;;;;;-4.19;41.96094;96316.16;;;;
2022/03/01 00:59:44;;;;;;;15.05;10.3;;;;;;;-4.19;41.96094;96316.16;;;;
2022/03/01 01:00:45;;;;;;;15.05;10.3;;;;;;;-4.19;41.96094;96316.16;;;;
2022/03/01 01:01:46;;;;;;;15.05;10.3;;;;;;;-4.19;41.96094;96316.16;;;;
2022/03/01 01:02:48;;;;;;;15.05;10.3;;;;;;;-4.19;41.96094;96316.16;;;;
2022/03/01 01:03:49;;;;;;;15.05;10.3;;;;;;;-4.19;41.96094;96316.16;;;;
2022/03/01 01:04:49;;;;;;;15.95;10.3;;;;;;;-4.33;42.45898;96298.78;;;;
2022/03/01 01:05:50;;;;;;;15.95;10.3;;;;;;;-4.33;42.45898;96298.78;;;;
2022/03/01 01:06:50;;;;;;;15.95;10.3;;;;;;;-4.33;42.45898;96298.78;;;;
2022/03/01 01:07:51;;;;;;;15.95;10.3;;;;;;;-4.33;42.45898;96298.78;;;;
2022/03/01 01:08:51;;;;;;;15.95;10.3;;;;;;;-4.33;42.45898;96298.78;;;;
2022/03/01 01:09:52;;;;;;;15.95;10.3;;;;;;;-4.33;42.45898;96298.78;;;;
2022/03/01 01:10:52;;;;;;;15.95;10.3;;;;;;;-4.33;42.45898;96298.78;;;;
2022/03/01 01:11:53;;;;;;;15.95;10.3;;;;;;;-4.33;42.45898;96298.78;;;;
2022/03/01 01:12:54;;;;;;;15.95;10.3;;;;;;;-4.33;42.45898;96298.78;;;;
2022/03/01 01:13:54;;;;;;;15.95;10.3;;;;;;;-4.33;42.45898;96298.78;;;;
2022/03/01 01:14:55;;;;;;;15.95;10.3;;;;;;;-4.33;42.45898;96298.78;;;;
2022/03/01 01:15:56;;;;;;;15.95;10.3;;;;;;;-4.33;42.45898;96298.78;;;;
2022/03/01 01:16:56;;;;;;;15.95;10.3;;;;;;;-4.33;42.45898;96298.78;;;;
2022/03/01 01:17:57;;;;;;;15.95;10.3;;;;;;;-4.33;42.45898;96298.78;;;;
2022/03/01 01:18:57;;;;;;;15.95;10.3;;;;;;;-4.33;42.45898;96298.78;;;;
2022/03/01 01:19:58;;;;;;;15.95;10.3;;;;;;;-4.33;42.45898;96298.78;;;;
2022/03/01 01:20:58;;;;;;;15.95;10.3;;;;;;;-4.33;42.45898;96298.78;;;;
2022/03/01 01:23:04;;;;;;;15.95;10.3;;;;;;;-4.33;42.45898;96298.78;;;;
2022/03/01 01:24:04;;;;;;;15.95;10.3;;;;;;;-4.33;42.45898;96298.78;;;;
2022/03/01 01:25:05;;;;;;;15.95;10.3;;;;;;;-4.33;42.45898;96298.78;;;;
2022/03/01 01:26:08;;;;;;;16.4;10.05;;;;;;;-4.51;43.19141;96291.85;;;;
2022/03/01 01:27:08;;;;;;;16.4;10.05;;;;;;;-4.51;43.19141;96291.85;;;;
2022/03/01 01:28:09;;;;;;;16.4;10.05;;;;;;;-4.51;43.19141;96291.85;;;;
2022/03/01 01:29:10;;;;;;;16.4;10.05;;;;;;;-4.51;43.19141;96291.85;;;;
2022/03/01 01:30:11;;;;;;;16.4;10.05;;;;;;;-4.51;43.19141;96291.85;;;;
2022/03/01 01:31:14;;;;;;;16.4;10.05;;;;;;;-4.51;43.19141;96291.85;;;;
2022/03/01 01:32:15;;;;;;;16.4;10.05;;;;;;;-4.51;43.19141;96291.85;;;;
2022/03/01 01:33:15;;;;;;;16.4;10.05;;;;;;;-4.51;43.19141;96291.85;;;;
2022/03/01 01:34:16;;;;;;;16.4;10.05;;;;;;;-4.51;43.19141;96291.85;;;;
2022/03/01 01:35:16;;;;;;;16.4;10.05;;;;;;;-4.51;43.19141;96291.85;;;;
2022/03/01 01:36:20;;;;;;;15.9;10.95;;;;;;;-4.57;43.5498;96277.83;;;;
2022/03/01 01:37:20;;;;;;;15.9;10.95;;;;;;;-4.57;43.5498;96277.83;;;;
2022/03/01 01:38:21;;;;;;;15.9;10.95;;;;;;;-4.57;43.5498;96277.83;;;;
2022/03/01 01:39:21;;;;;;;15.9;10.95;;;;;;;-4.57;43.5498;96277.83;;;;
2022/03/01 01:40:22;;;;;;;15.9;10.95;;;;;;;-4.57;43.5498;96277.83;;;;
2022/03/01 01:41:25;;;;;;;15.9;10.95;;;;;;;-4.57;43.5498;96277.83;;;;
2022/03/01 01:42:25;;;;;;;15.9;10.95;;;;;;;-4.57;43.5498;96277.83;;;;
2022/03/01 01:43:26;;;;;;;15.9;10.95;;;;;;;-4.57;43.5498;96277.83;;;;
2022/03/01 01:44:27;;;;;;;15.9;10.95;;;;;;;-4.57;43.5498;96277.83;;;;
2022/03/01 01:45:29;;;;;;;15.9;10.95;;;;;;;-4.57;43.5498;96277.83;;;;
2022/03/01 01:46:30;;;;;;;15.9;10.95;;;;;;;-4.57;43.5498;96277.83;;;;
2022/03/01 01:47:30;;;;;;;15.8;9.9;;;;;;;-4.66;43.87207;96269.41;;;;
2022/03/01 01:48:31;;;;;;;15.8;9.9;;;;;;;-4.66;43.87207;96269.41;;;;
2022/03/01 01:49:31;;;;;;;15.8;9.9;;;;;;;-4.66;43.87207;96269.41;;;;
2022/03/01 01:50:32;;;;;;;15.8;9.9;;;;;;;-4.66;43.87207;96269.41;;;;
2022/03/01 01:51:34;;;;;;;15.8;9.9;;;;;;;-4.66;43.87207;96269.41;;;;
2022/03/01 01:52:35;;;;;;;15.8;9.9;;;;;;;-4.66;43.87207;96269.41;;;;
2022/03/01 01:53:36;;;;;;;15.8;9.9;;;;;;;-4.66;43.87207;96269.41;;;;
2022/03/01 01:54:37;;;;;;;15.8;9.9;;;;;;;-4.66;43.87207;96269.41;;;;
2022/03/01 01:55:37;;;;;;;15.8;9.9;;;;;;;-4.66;43.87207;96269.41;;;;
2022/03/01 01:56:38;;;;;;;15.8;9.9;;;;;;;-4.66;43.87207;96269.41;;;;
2022/03/01 01:57:38;;;;;;;15.45;10;;;;;;;-4.81;44.24316;96273.6;;;;
2022/03/01 01:58:39;;;;;;;15.45;10;;;;;;;-4.81;44.24316;96273.6;;;;
2022/03/01 01:59:40;;;;;;;15.45;10;;;;;;;-4.81;44.24316;96273.6;;;;
2022/03/01 02:00:40;;;;;;;15.45;10;;;;;;;-4.81;44.24316;96273.6;;;;
2022/03/01 02:01:41;;;;;;;15.45;10;;;;;;;-4.81;44.24316;96273.6;;;;
2022/03/01 02:02:42;;;;;;;15.45;10;;;;;;;-4.81;44.24316;96273.6;;;;
2022/03/01 02:03:44;;;;;;;15.45;10;;;;;;;-4.81;44.24316;96273.6;;;;
2022/03/01 02:04:44;;;;;;;15.45;10;;;;;;;-4.81;44.24316;96273.6;;;;
2022/03/01 02:05:45;;;;;;;15.45;10;;;;;;;-4.81;44.24316;96273.6;;;;
2022/03/01 02:06:45;;;;;;;15.45;10;;;;;;;-4.81;44.24316;96273.6;;;;
2022/03/01 02:07:50;;;;;;;15.45;10;;;;;;;-4.81;44.24316;96273.6;;;;
2022/03/01 02:08:50;;;;;;;14.4;9.8;;;;;;;-4.92;44.55371;96256.04;;;;
2022/03/01 02:09:51;;;;;;;14.4;9.8;;;;;;;-4.92;44.55371;96256.04;;;;
2022/03/01 02:10:51;;;;;;;14.4;9.8;;;;;;;-4.92;44.55371;96256.04;;;;
2022/03/01 02:11:52;;;;;;;14.4;9.8;;;;;;;-4.92;44.55371;96256.04;;;;
2022/03/01 02:12:52;;;;;;;14.4;9.8;;;;;;;-4.92;44.55371;96256.04;;;;
2022/03/01 02:13:53;;;;;;;14.4;9.8;;;;;;;-4.92;44.55371;96256.04;;;;
2022/03/01 02:14:53;;;;;;;14.4;9.8;;;;;;;-4.92;44.55371;96256.04;;;;
2022/03/01 02:15:54;;;;;;;14.4;9.8;;;;;;;-4.92;44.55371;96256.04;;;;
2022/03/01 02:16:56;;;;;;;14.4;9.8;;;;;;;-4.92;44.55371;96256.04;;;;
2022/03/01 02:17:57;;;;;;;14.4;9.8;;;;;;;-4.92;44.55371;96256.04;;;;
2022/03/01 02:18:58;;;;;;;13.55;8.799999;;;;;;;-5.01;44.88672;96244.06;;;;
2022/03/01 02:19:58;;;;;;;13.55;8.799999;;;;;;;-5.01;44.88672;96244.06;;;;
2022/03/01 02:20:59;;;;;;;13.55;8.799999;;;;;;;-5.01;44.88672;96244.06;;;;
2022/03/01 02:21:59;;;;;;;13.55;8.799999;;;;;;;-5.01;44.88672;96244.06;;;;
2022/03/01 02:23:01;;;;;;;13.55;8.799999;;;;;;;-5.01;44.88672;96244.06;;;;
2022/03/01 02:24:02;;;;;;;13.55;8.799999;;;;;;;-5.01;44.88672;96244.06;;;;
2022/03/01 02:25:02;;;;;;;13.55;8.799999;;;;;;;-5.01;44.88672;96244.06;;;;
2022/03/01 02:26:04;;;;;;;13.55;8.799999;;;;;;;-5.01;44.88672;96244.06;;;;
2022/03/01 02:27:04;;;;;;;13.55;8.799999;;;;;;;-5.01;44.88672;96244.06;;;;
2022/03/01 02:28:05;;;;;;;13.55;8.799999;;;;;;;-5.01;44.88672;96244.06;;;;
2022/03/01 02:29:06;;;;;;;13.55;8.799999;;;;;;;-5.01;44.88672;96244.06;;;;
2022/03/01 02:30:06;;;;;;;15.15;9.299999;;;;;;;-5.04;45.20703;96237.72;;;;
2022/03/01 02:31:09;;;;;;;15.15;9.299999;;;;;;;-5.04;45.20703;96237.72;;;;
2022/03/01 02:32:09;;;;;;;15.15;9.299999;;;;;;;-5.04;45.20703;96237.72;;;;
2022/03/01 02:33:10;;;;;;;15.15;9.299999;;;;;;;-5.04;45.20703;96237.72;;;;
2022/03/01 02:34:10;;;;;;;15.15;9.299999;;;;;;;-5.04;45.20703;96237.72;;;;
2022/03/01 02:35:11;;;;;;;15.15;9.299999;;;;;;;-5.04;45.20703;96237.72;;;;
2022/03/01 02:36:12;;;;;;;15.15;9.299999;;;;;;;-5.04;45.20703;96237.72;;;;
2022/03/01 02:37:13;;;;;;;15.15;9.299999;;;;;;;-5.04;45.20703;96237.72;;;;
2022/03/01 02:38:13;;;;;;;15.15;9.299999;;;;;;;-5.04;45.20703;96237.72;;;;
2022/03/01 02:39:14;;;;;;;15.15;9.299999;;;;;;;-5.04;45.20703;96237.72;;;;
2022/03/01 02:40:15;;;;;;;14.4;9.500001;;;;;;;-5.04;45.39453;96237.25;;;;
2022/03/01 02:41:16;;;;;;;14.4;9.500001;;;;;;;-5.04;45.39453;96237.25;;;;
2022/03/01 02:42:16;;;;;;;14.4;9.500001;;;;;;;-5.04;45.39453;96237.25;;;;
2022/03/01 02:43:17;;;;;;;14.4;9.500001;;;;;;;-5.04;45.39453;96237.25;;;;
2022/03/01 02:44:17;;;;;;;14.4;9.500001;;;;;;;-5.04;45.39453;96237.25;;;;
2022/03/01 02:45:18;;;;;;;14.4;9.500001;;;;;;;-5.04;45.39453;96237.25;;;;
2022/03/01 02:46:19;;;;;;;14.4;9.500001;;;;;;;-5.04;45.39453;96237.25;;;;
2022/03/01 02:47:20;;;;;;;14.4;9.500001;;;;;;;-5.04;45.39453;96237.25;;;;
2022/03/01 02:48:20;;;;;;;14.4;9.500001;;;;;;;-5.04;45.39453;96237.25;;;;
2022/03/01 02:49:21;;;;;;;14.4;9.500001;;;;;;;-5.04;45.39453;96237.25;;;;
2022/03/01 02:50:21;;;;;;;14.4;9.500001;;;;;;;-5.04;45.39453;96237.25;;;;
2022/03/01 02:51:22;;;;;;;15.1;9.750001;;;;;;;-5.09;45.55371;96228.03;;;;
2022/03/01 02:52:23;;;;;;;15.1;9.750001;;;;;;;-5.09;45.55371;96228.03;;;;
2022/03/01 02:53:23;;;;;;;15.1;9.750001;;;;;;;-5.09;45.55371;96228.03;;;;
2022/03/01 02:54:24;;;;;;;15.1;9.750001;;;;;;;-5.09;45.55371;96228.03;;;;
2022/03/01 02:55:24;;;;;;;15.1;9.750001;;;;;;;-5.09;45.55371;96228.03;;;;
2022/03/01 02:56:25;;;;;;;15.1;9.750001;;;;;;;-5.09;45.55371;96228.03;;;;
2022/03/01 02:57:25;;;;;;;15.1;9.750001;;;;;;;-5.09;45.55371;96228.03;;;;
2022/03/01 02:58:26;;;;;;;15.1;9.750001;;;;;;;-5.09;45.55371;96228.03;;;;
2022/03/01 02:59:27;;;;;;;15.1;9.750001;;;;;;;-5.09;45.55371;96228.03;;;;
2022/03/01 03:00:28;;;;;;;15.1;9.750001;;;;;;;-5.09;45.55371;96228.03;;;;
2022/03/01 03:01:28;;;;;;;15.1;9.750001;;;;;;;-5.09;45.55371;96228.03;;;;
2022/03/01 03:02:29;;;;;;;15.1;9.750001;;;;;;;-5.09;45.55371;96228.03;;;;
2022/03/01 03:03:30;;;;;;;15.1;9.750001;;;;;;;-5.09;45.55371;96228.03;;;;
2022/03/01 03:04:30;;;;;;;15.1;9.750001;;;;;;;-5.09;45.55371;96228.03;;;;
2022/03/01 03:05:31;;;;;;;15.1;9.750001;;;;;;;-5.09;45.55371;96228.03;;;;
2022/03/01 03:06:31;;;;;;;15.1;9.750001;;;;;;;-5.09;45.55371;96228.03;;;;
2022/03/01 03:07:32;;;;;;;15.1;9.750001;;;;;;;-5.09;45.55371;96228.03;;;;
2022/03/01 03:08:32;;;;;;;15.1;9.750001;;;;;;;-5.09;45.55371;96228.03;;;;
2022/03/01 03:09:33;;;;;;;15.1;9.750001;;;;;;;-5.09;45.55371;96228.03;;;;
2022/03/01 03:10:34;;;;;;;15.1;9.750001;;;;;;;-5.09;45.55371;96228.03;;;;
2022/03/01 03:11:35;;;;;;;15.1;9.750001;;;;;;;-5.09;45.55371;96228.03;;;;
2022/03/01 03:12:35;;;;;;;14.95;9.65;;;;;;;-5.15;46.14063;96231.13;;;;
2022/03/01 03:13:36;;;;;;;14.95;9.65;;;;;;;-5.15;46.14063;96231.13;;;;
2022/03/01 03:14:36;;;;;;;14.95;9.65;;;;;;;-5.15;46.14063;96231.13;;;;
2022/03/01 03:15:37;;;;;;;14.95;9.65;;;;;;;-5.15;46.14063;96231.13;;;;
2022/03/01 03:16:38;;;;;;;14.95;9.65;;;;;;;-5.15;46.14063;96231.13;;;;
2022/03/01 03:17:39;;;;;;;14.95;9.65;;;;;;;-5.15;46.14063;96231.13;;;;
2022/03/01 03:18:39;;;;;;;14.95;9.65;;;;;;;-5.15;46.14063;96231.13;;;;
2022/03/01 03:19:40;;;;;;;14.95;9.65;;;;;;;-5.15;46.14063;96231.13;;;;
2022/03/01 03:20:40;;;;;;;14.95;9.65;;;;;;;-5.15;46.14063;96231.13;;;;
2022/03/01 03:21:41;;;;;;;14.95;9.65;;;;;;;-5.15;46.14063;96231.13;;;;
2022/03/01 03:22:43;;;;;;;13.2;9.45;;;;;;;-5.19;46.38574;96220;;;;
2022/03/01 03:23:43;;;;;;;13.2;9.45;;;;;;;-5.19;46.38574;96220;;;;
2022/03/01 03:24:44;;;;;;;13.2;9.45;;;;;;;-5.19;46.38574;96220;;;;
2022/03/01 03:25:44;;;;;;;13.2;9.45;;;;;;;-5.19;46.38574;96220;;;;
2022/03/01 03:26:45;;;;;;;13.2;9.45;;;;;;;-5.19;46.38574;96220;;;;
2022/03/01 03:27:46;;;;;;;13.2;9.45;;;;;;;-5.19;46.38574;96220;;;;
2022/03/01 03:28:47;;;;;;;13.2;9.45;;;;;;;-5.19;46.38574;96220;;;;
2022/03/01 03:29:47;;;;;;;13.2;9.45;;;;;;;-5.19;46.38574;96220;;;;
2022/03/01 03:30:48;;;;;;;13.2;9.45;;;;;;;-5.19;46.38574;96220;;;;
2022/03/01 03:31:48;;;;;;;13.2;9.45;;;;;;;-5.19;46.38574;96220;;;;
2022/03/01 03:32:49;;;;;;;13.2;9.45;;;;;;;-5.19;46.38574;96220;;;;
2022/03/01 03:33:50;;;;;;;15.85;10.25;;;;;;;-5.29;46.55273;96220.34;;;;
2022/03/01 03:34:50;;;;;;;15.85;10.25;;;;;;;-5.29;46.55273;96220.34;;;;
2022/03/01 03:35:51;;;;;;;15.85;10.25;;;;;;;-5.29;46.55273;96220.34;;;;
2022/03/01 03:36:51;;;;;;;15.85;10.25;;;;;;;-5.29;46.55273;96220.34;;;;
2022/03/01 03:37:53;;;;;;;15.85;10.25;;;;;;;-5.29;46.55273;96220.34;;;;
2022/03/01 03:38:53;;;;;;;15.85;10.25;;;;;;;-5.29;46.55273;96220.34;;;;
2022/03/01 03:39:53;;;;;;;15.85;10.25;;;;;;;-5.29;46.55273;96220.34;;;;
2022/03/01 03:40:54;;;;;;;15.85;10.25;;;;;;;-5.29;46.55273;96220.34;;;;
2022/03/01 03:41:54;;;;;;;15.85;10.25;;;;;;;-5.29;46.55273;96220.34;;;;
2022/03/01 03:42:55;;;;;;;15.85;10.25;;;;;;;-5.29;46.55273;96220.34;;;;
2022/03/01 03:43:56;;;;;;;15.85;10.25;;;;;;;-5.29;46.55273;96220.34;;;;
2022/03/01 03:44:56;;;;;;;15.1;10.1;;;;;;;-5.41;46.79883;96202.42;;;;
2022/03/01 03:45:57;;;;;;;15.1;10.1;;;;;;;-5.41;46.79883;96202.42;;;;
2022/03/01 03:46:57;;;;;;;15.1;10.1;;;;;;;-5.41;46.79883;96202.42;;;;
2022/03/01 03:47:58;;;;;;;15.1;10.1;;;;;;;-5.41;46.79883;96202.42;;;;
2022/03/01 03:48:58;;;;;;;15.1;10.1;;;;;;;-5.41;46.79883;96202.42;;;;
2022/03/01 03:49:59;;;;;;;15.1;10.1;;;;;;;-5.41;46.79883;96202.42;;;;
2022/03/01 03:50:59;;;;;;;15.1;10.1;;;;;;;-5.41;46.79883;96202.42;;;;
2022/03/01 03:52:00;;;;;;;15.1;10.1;;;;;;;-5.41;46.79883;96202.42;;;;
2022/03/01 03:53:01;;;;;;;15.1;10.1;;;;;;;-5.41;46.79883;96202.42;;;;
2022/03/01 03:54:03;;;;;;;15.1;10.1;;;;;;;-5.41;46.79883;96202.42;;;;
2022/03/01 03:55:05;;;;;;;15.35;9.999999;;;;;;;-5.55;47.08398;96189.01;;;;
2022/03/01 03:56:08;;;;;;;15.35;9.999999;;;;;;;-5.55;47.08398;96189.01;;;;
2022/03/01 03:57:08;;;;;;;15.35;9.999999;;;;;;;-5.55;47.08398;96189.01;;;;
2022/03/01 03:58:09;;;;;;;15.35;9.999999;;;;;;;-5.55;47.08398;96189.01;;;;
2022/03/01 03:59:10;;;;;;;15.35;9.999999;;;;;;;-5.55;47.08398;96189.01;;;;
2022/03/01 04:00:15;;;;;;;15.35;9.999999;;;;;;;-5.55;47.08398;96189.01;;;;
2022/03/01 04:01:16;;;;;;;15.35;9.999999;;;;;;;-5.55;47.08398;96189.01;;;;
2022/03/01 04:02:17;;;;;;;15.35;9.999999;;;;;;;-5.55;47.08398;96189.01;;;;
2022/03/01 04:03:17;;;;;;;15.35;9.999999;;;;;;;-5.55;47.08398;96189.01;;;;
2022/03/01 04:04:18;;;;;;;15.35;9.999999;;;;;;;-5.55;47.08398;96189.01;;;;
2022/03/01 04:05:18;;;;;;;15.35;9.999999;;;;;;;-5.55;47.08398;96189.01;;;;
2022/03/01 04:06:19;;;;;;;16.6;10;;;;;;;-5.65;47.42676;96189.37;;;;
2022/03/01 04:07:20;;;;;;;16.6;10;;;;;;;-5.65;47.42676;96189.37;;;;
2022/03/01 04:08:20;;;;;;;16.6;10;;;;;;;-5.65;47.42676;96189.37;;;;
2022/03/01 04:09:21;;;;;;;16.6;10;;;;;;;-5.65;47.42676;96189.37;;;;
2022/03/01 04:10:22;;;;;;;16.6;10;;;;;;;-5.65;47.42676;96189.37;;;;
2022/03/01 04:11:24;;;;;;;16.6;10;;;;;;;-5.65;47.42676;96189.37;;;;
2022/03/01 04:12:25;;;;;;;16.6;10;;;;;;;-5.65;47.42676;96189.37;;;;
2022/03/01 04:13:25;;;;;;;16.6;10;;;;;;;-5.65;47.42676;96189.37;;;;
2022/03/01 04:14:26;;;;;;;16.6;10;;;;;;;-5.65;47.42676;96189.37;;;;
2022/03/01 04:15:27;;;;;;;16.6;10;;;;;;;-5.65;47.42676;96189.37;;;;
2022/03/01 04:16:27;;;;;;;13.9;9.8;;;;;;;-5.74;47.68555;96190.95;;;;
2022/03/01 04:17:28;;;;;;;13.9;9.8;;;;;;;-5.74;47.68555;96190.95;;;;
2022/03/01 04:18:29;;;;;;;13.9;9.8;;;;;;;-5.74;47.68555;96190.95;;;;
2022/03/01 04:19:29;;;;;;;13.9;9.8;;;;;;;-5.74;47.68555;96190.95;;;;
2022/03/01 04:20:30;;;;;;;13.9;9.8;;;;;;;-5.74;47.68555;96190.95;;;;
2022/03/01 04:21:31;;;;;;;13.9;9.8;;;;;;;-5.74;47.68555;96190.95;;;;
2022/03/01 04:22:32;;;;;;;13.9;9.8;;;;;;;-5.74;47.68555;96190.95;;;;
2022/03/01 04:23:32;;;;;;;13.9;9.8;;;;;;;-5.74;47.68555;96190.95;;;;
2022/03/01 04:24:33;;;;;;;13.9;9.8;;;;;;;-5.74;47.68555;96190.95;;;;
2022/03/01 04:25:34;;;;;;;13.9;9.8;;;;;;;-5.74;47.68555;96190.95;;;;
2022/03/01 04:26:34;;;;;;;13.9;9.8;;;;;;;-5.74;47.68555;96190.95;;;;
2022/03/01 04:27:35;;;;;;;15.25;10.6;;;;;;;-5.73;47.9248;96187.36;;;;
2022/03/01 04:28:35;;;;;;;15.25;10.6;;;;;;;-5.73;47.9248;96187.36;;;;
2022/03/01 04:29:36;;;;;;;15.25;10.6;;;;;;;-5.73;47.9248;96187.36;;;;
2022/03/01 04:30:36;;;;;;;15.25;10.6;;;;;;;-5.73;47.9248;96187.36;;;;
2022/03/01 04:31:37;;;;;;;15.25;10.6;;;;;;;-5.73;47.9248;96187.36;;;;
2022/03/01 04:32:38;;;;;;;15.25;10.6;;;;;;;-5.73;47.9248;96187.36;;;;
2022/03/01 04:33:39;;;;;;;15.25;10.6;;;;;;;-5.73;47.9248;96187.36;;;;
2022/03/01 04:34:41;;;;;;;15.25;10.6;;;;;;;-5.73;47.9248;96187.36;;;;
2022/03/01 04:35:42;;;;;;;15.25;10.6;;;;;;;-5.73;47.9248;96187.36;;;;
2022/03/01 04:36:42;;;;;;;15.25;10.6;;;;;;;-5.73;47.9248;96187.36;;;;
2022/03/01 04:37:43;;;;;;;14.55;9.949999;;;;;;;-5.66;48.06738;96190.77;;;;
2022/03/01 04:38:43;;;;;;;14.55;9.949999;;;;;;;-5.66;48.06738;96190.77;;;;
2022/03/01 04:39:44;;;;;;;14.55;9.949999;;;;;;;-5.66;48.06738;96190.77;;;;
2022/03/01 04:40:44;;;;;;;14.55;9.949999;;;;;;;-5.66;48.06738;96190.77;;;;
2022/03/01 04:41:45;;;;;;;14.55;9.949999;;;;;;;-5.66;48.06738;96190.77;;;;
2022/03/01 04:42:45;;;;;;;14.55;9.949999;;;;;;;-5.66;48.06738;96190.77;;;;
2022/03/01 04:43:46;;;;;;;14.55;9.949999;;;;;;;-5.66;48.06738;96190.77;;;;
2022/03/01 04:44:47;;;;;;;14.55;9.949999;;;;;;;-5.66;48.06738;96190.77;;;;
2022/03/01 04:45:47;;;;;;;14.55;9.949999;;;;;;;-5.66;48.06738;96190.77;;;;
2022/03/01 04:46:48;;;;;;;14.55;9.949999;;;;;;;-5.66;48.06738;96190.77;;;;
2022/03/01 04:47:48;;;;;;;14.55;9.949999;;;;;;;-5.66;48.06738;96190.77;;;;
2022/03/01 04:48:49;;;;;;;14.8;10.55;;;;;;;-5.69;48.1582;96181.34;;;;
2022/03/01 04:49:50;;;;;;;14.8;10.55;;;;;;;-5.69;48.1582;96181.34;;;;
2022/03/01 04:50:50;;;;;;;14.8;10.55;;;;;;;-5.69;48.1582;96181.34;;;;
2022/03/01 04:51:51;;;;;;;14.8;10.55;;;;;;;-5.69;48.1582;96181.34;;;;
2022/03/01 04:52:52;;;;;;;14.8;10.55;;;;;;;-5.69;48.1582;96181.34;;;;
2022/03/01 04:53:53;;;;;;;14.8;10.55;;;;;;;-5.69;48.1582;96181.34;;;;
2022/03/01 04:54:53;;;;;;;14.8;10.55;;;;;;;-5.69;48.1582;96181.34;;;;
2022/03/01 04:55:54;;;;;;;14.8;10.55;;;;;;;-5.69;48.1582;96181.34;;;;
2022/03/01 04:56:54;;;;;;;14.8;10.55;;;;;;;-5.69;48.1582;96181.34;;;;
2022/03/01 04:57:55;;;;;;;14.8;10.55;;;;;;;-5.69;48.1582;96181.34;;;;
2022/03/01 04:58:55;;;;;;;15.3;10.1;;;;;;;-5.74;48.40137;96177.81;;;;
2022/03/01 04:59:56;;;;;;;15.3;10.1;;;;;;;-5.74;48.40137;96177.81;;;;
2022/03/01 05:00:58;;;;;;;15.3;10.1;;;;;;;-5.74;48.40137;96177.81;;;;
2022/03/01 05:01:58;;;;;;;15.3;10.1;;;;;;;-5.74;48.40137;96177.81;;;;
2022/03/01 05:02:59;;;;;;;15.3;10.1;;;;;;;-5.74;48.40137;96177.81;;;;
2022/03/01 05:03:59;;;;;;;15.3;10.1;;;;;;;-5.74;48.40137;96177.81;;;;
2022/03/01 05:05:00;;;;;;;15.3;10.1;;;;;;;-5.74;48.40137;96177.81;;;;
2022/03/01 05:06:00;;;;;;;15.3;10.1;;;;;;;-5.74;48.40137;96177.81;;;;
2022/03/01 05:07:01;;;;;;;15.3;10.1;;;;;;;-5.74;48.40137;96177.81;;;;
2022/03/01 05:08:02;;;;;;;15.3;10.1;;;;;;;-5.74;48.40137;96177.81;;;;
2022/03/01 05:09:03;;;;;;;15.3;10.1;;;;;;;-5.74;48.40137;96177.81;;;;
2022/03/01 05:10:04;;;;;;;17.2;10.5;;;;;;;-5.74;48.74414;96186.58;;;;
2022/03/01 05:11:07;;;;;;;17.2;10.5;;;;;;;-5.74;48.74414;96186.58;;;;
2022/03/01 05:12:08;;;;;;;17.2;10.5;;;;;;;-5.74;48.74414;96186.58;;;;
2022/03/01 05:13:09;;;;;;;17.2;10.5;;;;;;;-5.74;48.74414;96186.58;;;;
2022/03/01 05:14:09;;;;;;;17.2;10.5;;;;;;;-5.74;48.74414;96186.58;;;;
2022/03/01 05:15:10;;;;;;;17.2;10.5;;;;;;;-5.74;48.74414;96186.58;;;;
2022/03/01 05:16:11;;;;;;;17.2;10.5;;;;;;;-5.74;48.74414;96186.58;;;;
2022/03/01 05:17:11;;;;;;;17.2;10.5;;;;;;;-5.74;48.74414;96186.58;;;;
2022/03/01 05:18:12;;;;;;;17.2;10.5;;;;;;;-5.74;48.74414;96186.58;;;;
2022/03/01 05:19:12;;;;;;;17.2;10.5;;;;;;;-5.74;48.74414;96186.58;;;;
2022/03/01 05:20:13;;;;;;;17.1;10.2;;;;;;;-5.71;48.88184;96192.46;;;;
2022/03/01 05:21:15;;;;;;;17.1;10.2;;;;;;;-5.71;48.88184;96192.46;;;;
2022/03/01 05:22:16;;;;;;;17.1;10.2;;;;;;;-5.71;48.88184;96192.46;;;;
2022/03/01 05:23:16;;;;;;;17.1;10.2;;;;;;;-5.71;48.88184;96192.46;;;;
2022/03/01 05:24:16;;;;;;;17.1;10.2;;;;;;;-5.71;48.88184;96192.46;;;;
2022/03/01 05:25:17;;;;;;;17.1;10.2;;;;;;;-5.71;48.88184;96192.46;;;;
2022/03/01 05:26:20;;;;;;;17.1;10.2;;;;;;;-5.71;48.88184;96192.46;;;;
2022/03/01 05:27:21;;;;;;;17.1;10.2;;;;;;;-5.71;48.88184;96192.46;;;;
2022/03/01 05:28:21;;;;;;;17.1;10.2;;;;;;;-5.71;48.88184;96192.46;;;;
2022/03/01 05:29:22;;;;;;;17.1;10.2;;;;;;;-5.71;48.88184;96192.46;;;;
2022/03/01 05:30:22;;;;;;;17.1;10.2;;;;;;;-5.71;48.88184;96192.46;;;;
2022/03/01 05:31:23;;;;;;;14.9;10.25;;;;;;;-5.75;49.03223;96204.61;;;;
2022/03/01 05:32:24;;;;;;;14.9;10.25;;;;;;;-5.75;49.03223;96204.61;;;;
2022/03/01 05:33:25;;;;;;;14.9;10.25;;;;;;;-5.75;49.03223;96204.61;;;;
2022/03/01 05:34:25;;;;;;;14.9;10.25;;;;;;;-5.75;49.03223;96204.61;;;;
2022/03/01 05:35:26;;;;;;;14.9;10.25;;;;;;;-5.75;49.03223;96204.61;;;;
2022/03/01 05:36:28;;;;;;;14.9;10.25;;;;;;;-5.75;49.03223;96204.61;;;;
2022/03/01 05:37:29;;;;;;;14.9;10.25;;;;;;;-5.75;49.03223;96204.61;;;;
2022/03/01 05:38:30;;;;;;;14.9;10.25;;;;;;;-5.75;49.03223;96204.61;;;;